Time;durP1;ratioP1;P1;durP2;ratioP2;P2;SDS_P1;SDS_P2;PMS_P1;PMS_P2;Temp;Humidity;BMP_temperature;BMP_pressure;BME280_temperature;BME280_humidity;BME280_pressure;Samples;Min_cycle;Max_cycle;Signal;HPM_P1;HPM_P2
2023/09/08 00:00:05;;;;;;;10.63;8.70;;;20.00;99.90;;;;;;4992420;28;20042;-64
2023/09/08 00:02:30;;;;;;;11.10;8.30;;;20.00;99.90;;;;;;4977545;28;20117;-66
2023/09/08 00:04:56;;;;;;;13.95;8.07;;;20.00;99.90;;;;;;4991680;28;20536;-64
2023/09/08 00:07:22;;;;;;;11.45;8.35;;;19.90;99.90;;;;;;4987210;28;20413;-65
2023/09/08 00:09:47;;;;;;;10.23;7.95;;;19.90;99.90;;;;;;4984408;28;20038;-65
2023/09/08 00:12:13;;;;;;;11.07;8.45;;;19.90;99.90;;;;;;4991847;28;20030;-64
2023/09/08 00:14:39;;;;;;;11.80;8.82;;;19.80;99.90;;;;;;4990794;28;20035;-65
2023/09/08 00:17:04;;;;;;;12.30;8.02;;;19.80;99.90;;;;;;4991832;28;20084;-64
2023/09/08 00:19:30;;;;;;;12.80;8.57;;;19.80;99.90;;;;;;4991166;28;20123;-64
2023/09/08 00:21:56;;;;;;;9.35;8.32;;;19.80;99.90;;;;;;4991572;28;20437;-64
2023/09/08 00:24:22;;;;;;;10.68;8.77;;;19.80;99.90;;;;;;4990905;28;20500;-64
2023/09/08 00:26:48;;;;;;;10.70;9.02;;;19.70;99.90;;;;;;4991083;28;20142;-64
2023/09/08 00:29:13;;;;;;;11.10;8.98;;;19.70;99.90;;;;;;4991277;28;20065;-64
2023/09/08 00:31:39;;;;;;;15.73;8.75;;;19.70;99.90;;;;;;4973859;28;20402;-66
2023/09/08 00:34:05;;;;;;;11.35;9.45;;;19.60;99.90;;;;;;4991086;28;20038;-64
2023/09/08 00:36:30;;;;;;;13.85;9.20;;;19.50;99.90;;;;;;4991117;28;20031;-64
2023/09/08 00:38:56;;;;;;;14.70;9.02;;;19.60;99.90;;;;;;4986343;28;20046;-65
2023/09/08 00:41:23;;;;;;;9.90;8.75;;;19.60;99.90;;;;;;4973545;28;20394;-65
2023/09/08 00:43:49;;;;;;;12.02;9.35;;;19.50;99.90;;;;;;4973777;28;20400;-64
2023/09/08 00:46:15;;;;;;;14.15;8.65;;;19.50;99.90;;;;;;4973687;28;20120;-64
2023/09/08 00:48:41;;;;;;;10.57;9.27;;;19.50;99.90;;;;;;4991014;28;20121;-64
2023/09/08 00:51:09;;;;;;;12.10;9.15;;;19.40;99.90;;;;;;4991169;28;20117;-64
2023/09/08 00:53:35;;;;;;;10.05;8.75;;;19.40;99.90;;;;;;4971484;28;20084;-66
2023/09/08 00:56:02;;;;;;;11.73;9.18;;;19.40;99.90;;;;;;4994727;28;20101;-65
2023/09/08 00:58:28;;;;;;;14.07;9.30;;;19.30;99.90;;;;;;4990994;28;20520;-63
2023/09/08 01:00:57;;;;;;;13.18;9.27;;;19.30;99.90;;;;;;4990690;28;20093;-64
2023/09/08 01:03:23;;;;;;;12.00;9.73;;;19.30;99.90;;;;;;4990848;28;20042;-64
2023/09/08 01:05:49;;;;;;;13.68;9.43;;;19.30;99.90;;;;;;4993883;28;20034;-63
2023/09/08 01:08:15;;;;;;;11.80;9.68;;;19.30;99.90;;;;;;4990906;28;20038;-64
2023/09/08 01:10:42;;;;;;;17.80;9.52;;;19.30;99.90;;;;;;4986270;28;20081;-64
2023/09/08 01:13:07;;;;;;;11.90;9.65;;;19.30;99.90;;;;;;4995787;28;20118;-64
2023/09/08 01:15:33;;;;;;;10.85;9.23;;;19.30;99.90;;;;;;4996918;28;20117;-63
2023/09/08 01:17:58;;;;;;;12.45;9.43;;;19.20;99.90;;;;;;4990641;28;20038;-64
2023/09/08 01:20:30;;;;;;;10.57;8.95;;;19.20;99.90;;;;;;4990314;28;20052;-63
2023/09/08 01:23:18;;;;;;;14.25;9.68;;;19.10;99.90;;;;;;4989591;28;20038;-65
2023/09/08 01:25:59;;;;;;;11.60;9.40;;;19.20;99.90;;;;;;4990258;28;20058;-64
2023/09/08 01:28:26;;;;;;;11.40;9.65;;;19.10;99.90;;;;;;4966949;28;20130;-65
2023/09/08 01:30:54;;;;;;;11.45;9.48;;;19.10;99.90;;;;;;4990230;28;20100;-64
2023/09/08 01:33:20;;;;;;;13.38;10.00;;;19.10;99.90;;;;;;4990096;28;20038;-65
2023/09/08 01:35:46;;;;;;;13.55;9.75;;;19.00;99.90;;;;;;4989942;28;20049;-64
2023/09/08 01:38:12;;;;;;;13.85;9.80;;;18.90;99.90;;;;;;4972843;28;20074;-64
2023/09/08 01:40:37;;;;;;;12.40;9.00;;;19.00;99.90;;;;;;4972942;28;20080;-64
2023/09/08 01:43:03;;;;;;;13.18;9.82;;;19.00;99.90;;;;;;4990601;28;20038;-66
2023/09/08 01:45:29;;;;;;;12.20;10.05;;;18.90;99.90;;;;;;4972340;28;20039;-64
2023/09/08 01:47:54;;;;;;;12.32;10.40;;;18.90;99.90;;;;;;4990218;28;20053;-64
2023/09/08 01:50:22;;;;;;;14.05;9.82;;;18.90;99.90;;;;;;4990182;28;20043;-64
2023/09/08 01:52:48;;;;;;;14.82;11.25;;;18.90;99.90;;;;;;4973240;28;20416;-64
2023/09/08 01:55:15;;;;;;;13.38;9.90;;;18.90;99.90;;;;;;4972292;28;20046;-64
2023/09/08 01:57:40;;;;;;;11.43;9.65;;;18.90;99.90;;;;;;4990482;28;20034;-64
2023/09/08 02:00:06;;;;;;;11.85;10.25;;;18.80;99.90;;;;;;4990539;28;20046;-64
2023/09/08 02:02:32;;;;;;;11.93;9.77;;;18.80;99.90;;;;;;4990090;28;20046;-64
2023/09/08 02:04:57;;;;;;;14.65;9.35;;;18.80;99.90;;;;;;4992738;28;20036;-65
2023/09/08 02:07:23;;;;;;;12.95;9.73;;;18.80;99.90;;;;;;5000607;28;20103;-63
2023/09/08 02:09:49;;;;;;;12.30;9.70;;;18.80;99.90;;;;;;4972579;28;20041;-63
2023/09/08 02:12:14;;;;;;;14.60;9.95;;;18.70;99.90;;;;;;4973307;28;20113;-64
2023/09/08 02:14:40;;;;;;;15.13;9.88;;;18.70;99.90;;;;;;4989602;28;20165;-65
2023/09/08 02:17:06;;;;;;;12.93;9.52;;;18.70;99.90;;;;;;4972598;28;20046;-63
2023/09/08 02:19:31;;;;;;;14.18;9.98;;;18.70;99.90;;;;;;4972458;28;20053;-64
2023/09/08 02:21:57;;;;;;;13.00;10.20;;;18.70;99.90;;;;;;4993146;28;20046;-63
2023/09/08 02:24:23;;;;;;;13.70;9.95;;;18.60;99.90;;;;;;5000401;28;20495;-64
2023/09/08 02:26:49;;;;;;;15.57;10.07;;;18.50;99.90;;;;;;4992768;28;20120;-64
2023/09/08 02:29:14;;;;;;;11.30;9.90;;;18.60;99.90;;;;;;4979756;28;20050;-64
2023/09/08 02:31:40;;;;;;;12.25;9.63;;;18.60;99.90;;;;;;4993394;28;20041;-63
2023/09/08 02:34:05;;;;;;;12.43;10.45;;;18.60;99.90;;;;;;4993043;28;20049;-64
2023/09/08 02:36:31;;;;;;;16.48;10.65;;;18.60;99.90;;;;;;4970168;28;20042;-64
2023/09/08 02:38:57;;;;;;;13.63;10.63;;;18.60;99.90;;;;;;4993327;28;20046;-64
2023/09/08 02:41:23;;;;;;;16.77;11.07;;;18.60;99.90;;;;;;4993134;28;20042;-64
2023/09/08 02:43:49;;;;;;;14.55;11.15;;;18.50;99.90;;;;;;4992969;28;20042;-65
2023/09/08 02:46:15;;;;;;;18.58;11.00;;;18.50;99.90;;;;;;4992973;28;20053;-65
2023/09/08 02:48:41;;;;;;;13.50;10.82;;;18.50;99.90;;;;;;4992755;28;20109;-65
2023/09/08 02:51:06;;;;;;;13.02;10.63;;;18.50;99.90;;;;;;4993234;28;20038;-64
2023/09/08 02:53:32;;;;;;;15.45;11.48;;;18.50;99.90;;;;;;4975141;28;20042;-64
2023/09/08 02:55:59;;;;;;;16.90;11.35;;;18.40;99.90;;;;;;4993240;28;20066;-64
2023/09/08 02:58:25;;;;;;;19.35;11.55;;;18.40;99.90;;;;;;4975407;28;20051;-64
2023/09/08 03:00:52;;;;;;;14.13;11.73;;;18.40;99.90;;;;;;4992949;28;20041;-65
2023/09/08 03:03:21;;;;;;;15.18;11.60;;;18.40;99.90;;;;;;4993311;28;20038;-65
2023/09/08 03:05:47;;;;;;;16.13;10.93;;;18.40;99.90;;;;;;4992627;28;20027;-64
2023/09/08 03:08:12;;;;;;;14.18;11.43;;;18.40;99.90;;;;;;4992712;28;20744;-64
2023/09/08 03:10:38;;;;;;;14.82;11.48;;;18.40;99.90;;;;;;4979735;28;20038;-64
2023/09/08 03:13:04;;;;;;;14.85;12.73;;;18.30;99.90;;;;;;4992939;28;20400;-64
2023/09/08 03:15:30;;;;;;;15.40;12.70;;;18.30;99.90;;;;;;4978056;28;20069;-65
2023/09/08 03:17:58;;;;;;;13.27;11.82;;;18.30;99.90;;;;;;4992878;28;20081;-65
2023/09/08 03:20:25;;;;;;;13.75;11.15;;;18.30;99.90;;;;;;4992618;28;20050;-65
2023/09/08 03:22:51;;;;;;;12.45;10.82;;;18.30;99.90;;;;;;4993024;28;20042;-64
2023/09/08 03:25:17;;;;;;;14.23;10.80;;;18.30;99.90;;;;;;4974938;28;20500;-64
2023/09/08 03:27:43;;;;;;;16.90;11.73;;;18.30;99.90;;;;;;4992701;28;20031;-64
2023/09/08 03:30:09;;;;;;;15.23;11.60;;;18.30;99.90;;;;;;4991909;28;20045;-63
2023/09/08 03:32:34;;;;;;;16.35;11.95;;;18.20;99.90;;;;;;4992367;28;20049;-64
2023/09/08 03:35:00;;;;;;;17.42;12.05;;;18.10;99.90;;;;;;4987887;28;20405;-64
2023/09/08 03:37:28;;;;;;;14.80;11.55;;;18.20;99.90;;;;;;4992588;28;20092;-63
2023/09/08 03:39:54;;;;;;;14.80;12.00;;;18.20;99.90;;;;;;4992114;28;20046;-63
2023/09/08 03:42:19;;;;;;;17.38;12.82;;;18.20;99.90;;;;;;4992577;28;20060;-63
2023/09/08 03:44:45;;;;;;;13.82;12.20;;;18.10;99.90;;;;;;4991578;28;20150;-63
2023/09/08 03:47:11;;;;;;;13.90;11.75;;;18.10;99.90;;;;;;4998733;28;20054;-64
2023/09/08 03:49:36;;;;;;;14.75;12.30;;;18.10;99.90;;;;;;4992676;28;20481;-65
2023/09/08 03:52:02;;;;;;;17.33;12.73;;;18.10;99.90;;;;;;4992068;28;20041;-64
2023/09/08 03:54:27;;;;;;;17.42;12.63;;;18.10;99.90;;;;;;4991676;28;20034;-64
2023/09/08 03:56:53;;;;;;;17.83;13.05;;;18.10;99.90;;;;;;4994967;28;20049;-64
2023/09/08 03:59:19;;;;;;;15.65;12.50;;;17.90;99.90;;;;;;4972863;28;20489;-65
2023/09/08 04:01:44;;;;;;;16.33;12.63;;;18.00;99.90;;;;;;4992166;28;20030;-64
2023/09/08 04:04:10;;;;;;;14.48;12.75;;;18.00;99.90;;;;;;4991591;28;20177;-64
2023/09/08 04:06:35;;;;;;;15.80;12.43;;;18.00;99.90;;;;;;4991504;28;20058;-64
2023/09/08 04:09:01;;;;;;;17.38;13.15;;;18.00;99.90;;;;;;4991684;28;20050;-64
2023/09/08 04:11:27;;;;;;;17.10;12.63;;;18.00;99.90;;;;;;4991444;28;20049;-63
2023/09/08 04:13:52;;;;;;;16.42;12.55;;;17.90;99.90;;;;;;4991015;28;20040;-64
2023/09/08 04:16:18;;;;;;;17.42;12.65;;;18.00;99.90;;;;;;4973826;28;20396;-64
2023/09/08 04:18:44;;;;;;;15.95;13.23;;;17.90;99.90;;;;;;4992269;28;20038;-64
2023/09/08 04:21:10;;;;;;;14.35;12.80;;;17.90;99.90;;;;;;4974110;28;20512;-63
2023/09/08 04:23:35;;;;;;;16.17;12.63;;;17.90;99.90;;;;;;4990703;28;20046;-65
2023/09/08 04:26:01;;;;;;;17.90;12.60;;;17.80;99.90;;;;;;4991113;28;20105;-64
2023/09/08 04:28:27;;;;;;;22.65;13.48;;;17.80;99.90;;;;;;4978469;28;20429;-63
2023/09/08 04:30:52;;;;;;;18.23;13.48;;;17.80;99.90;;;;;;4998082;28;20031;-64
2023/09/08 04:33:18;;;;;;;21.30;13.30;;;17.80;99.90;;;;;;4990942;28;20514;-64
2023/09/08 04:35:43;;;;;;;16.55;13.25;;;17.80;99.90;;;;;;4973431;28;20042;-65
2023/09/08 04:38:09;;;;;;;16.42;13.27;;;17.70;99.90;;;;;;4990843;28;20047;-64
2023/09/08 04:40:35;;;;;;;16.75;12.82;;;17.70;99.90;;;;;;4991213;28;20042;-64
2023/09/08 04:43:00;;;;;;;18.23;13.88;;;17.70;99.90;;;;;;4991097;28;20080;-63
2023/09/08 04:45:26;;;;;;;15.57;13.85;;;17.70;99.90;;;;;;4980190;28;20042;-64
2023/09/08 04:47:51;;;;;;;16.23;13.52;;;17.70;99.90;;;;;;4991339;28;20040;-64
2023/09/08 04:50:17;;;;;;;16.48;13.60;;;17.60;99.90;;;;;;4994247;28;20030;-64
2023/09/08 04:52:43;;;;;;;22.73;13.15;;;17.60;99.90;;;;;;4991338;28;20038;-63
2023/09/08 04:55:09;;;;;;;16.55;13.68;;;17.60;99.90;;;;;;4990276;28;20393;-64
2023/09/08 04:57:35;;;;;;;15.40;13.30;;;17.60;99.90;;;;;;4990921;28;20038;-63
2023/09/08 05:00:01;;;;;;;18.63;13.77;;;17.60;99.90;;;;;;4990643;28;20045;-64
2023/09/08 05:02:27;;;;;;;16.10;14.05;;;17.60;99.90;;;;;;4985596;28;20046;-64
2023/09/08 05:04:52;;;;;;;20.48;13.65;;;17.50;99.90;;;;;;4992928;28;20038;-64
2023/09/08 05:07:18;;;;;;;18.02;13.55;;;17.50;99.90;;;;;;4976471;28;20042;-64
2023/09/08 05:09:44;;;;;;;18.17;13.73;;;17.50;99.90;;;;;;4991026;28;20038;-63
2023/09/08 05:12:10;;;;;;;15.27;13.55;;;17.50;99.90;;;;;;5001462;28;20289;-64
2023/09/08 05:14:35;;;;;;;15.55;13.43;;;17.50;99.90;;;;;;4973621;28;20527;-63
2023/09/08 05:17:01;;;;;;;16.25;14.00;;;17.50;99.90;;;;;;4990606;28;20049;-64
2023/09/08 05:19:27;;;;;;;17.13;13.00;;;17.50;99.90;;;;;;4990778;28;20503;-64
2023/09/08 05:21:54;;;;;;;17.80;13.43;;;17.50;99.90;;;;;;4992649;28;20034;-64
2023/09/08 05:24:20;;;;;;;16.00;13.27;;;17.50;99.90;;;;;;4993151;28;20043;-64
2023/09/08 05:26:47;;;;;;;17.45;14.02;;;17.40;99.90;;;;;;4990105;28;20037;-64
2023/09/08 05:29:12;;;;;;;18.38;14.27;;;17.40;99.90;;;;;;4990599;28;20042;-64
2023/09/08 05:31:38;;;;;;;16.35;14.05;;;17.50;99.90;;;;;;4990281;28;20045;-64
2023/09/08 05:34:04;;;;;;;17.95;13.45;;;17.40;99.90;;;;;;4989945;28;20455;-64
2023/09/08 05:36:30;;;;;;;18.73;14.55;;;17.40;99.90;;;;;;4990362;28;20081;-64
2023/09/08 05:38:56;;;;;;;17.27;14.27;;;17.40;99.90;;;;;;4990159;28;20047;-64
2023/09/08 05:41:22;;;;;;;20.73;14.52;;;17.40;99.90;;;;;;4990608;28;20046;-64
2023/09/08 05:43:48;;;;;;;15.73;13.32;;;17.40;99.90;;;;;;4989911;28;20081;-64
2023/09/08 05:46:13;;;;;;;17.48;13.77;;;17.40;99.90;;;;;;4990386;28;20485;-64
2023/09/08 05:48:39;;;;;;;16.40;13.63;;;17.40;99.90;;;;;;4990234;28;20034;-64
2023/09/08 05:51:06;;;;;;;16.80;13.77;;;17.40;99.90;;;;;;4990015;28;20030;-64
2023/09/08 05:53:32;;;;;;;17.38;14.35;;;17.40;99.90;;;;;;4972943;28;20050;-64
2023/09/08 05:55:58;;;;;;;17.48;14.07;;;17.40;99.90;;;;;;4989612;28;20034;-64
2023/09/08 05:58:27;;;;;;;18.77;14.23;;;17.40;99.90;;;;;;4990152;28;20471;-64
2023/09/08 06:00:53;;;;;;;18.45;14.48;;;17.40;99.90;;;;;;4987113;28;20493;-64
2023/09/08 06:03:19;;;;;;;17.92;14.98;;;17.50;99.90;;;;;;4990603;28;20039;-64
2023/09/08 06:05:44;;;;;;;19.10;15.05;;;17.40;99.90;;;;;;4993528;28;20037;-64
2023/09/08 06:08:10;;;;;;;20.05;15.38;;;17.40;99.90;;;;;;4995355;28;20417;-64
2023/09/08 06:10:36;;;;;;;16.33;14.55;;;17.50;99.90;;;;;;4993548;28;20519;-64
2023/09/08 06:13:01;;;;;;;20.02;14.63;;;17.40;99.90;;;;;;4994376;28;20039;-64
2023/09/08 06:15:27;;;;;;;16.42;14.02;;;17.50;99.90;;;;;;4975464;28;20043;-64
2023/09/08 06:17:52;;;;;;;17.25;14.85;;;17.40;99.90;;;;;;4994051;28;20042;-64
2023/09/08 06:20:18;;;;;;;17.67;14.90;;;17.50;99.90;;;;;;4993532;28;20049;-64
2023/09/08 06:22:43;;;;;;;20.52;14.57;;;17.50;99.90;;;;;;4993933;28;20465;-64
2023/09/08 06:25:09;;;;;;;23.08;14.77;;;17.50;99.90;;;;;;5000362;28;20049;-64
2023/09/08 06:27:35;;;;;;;19.63;14.73;;;17.60;99.90;;;;;;4997468;28;20397;-64
2023/09/08 06:30:00;;;;;;;19.35;14.38;;;17.60;99.90;;;;;;4992381;28;20050;-64
2023/09/08 06:32:26;;;;;;;20.55;15.00;;;17.70;99.90;;;;;;4993049;28;20042;-64
2023/09/08 06:34:52;;;;;;;18.30;14.38;;;17.70;99.90;;;;;;4995956;28;20039;-64
2023/09/08 06:37:17;;;;;;;18.70;14.98;;;17.70;99.90;;;;;;4991115;28;20132;-64
2023/09/08 06:39:43;;;;;;;19.80;14.60;;;17.70;99.90;;;;;;4985555;28;20042;-64
2023/09/08 06:42:08;;;;;;;19.05;14.15;;;17.70;99.90;;;;;;4999701;28;20050;-64
2023/09/08 06:44:34;;;;;;;17.38;14.50;;;17.80;99.90;;;;;;4993376;28;20408;-64
2023/09/08 06:47:00;;;;;;;19.88;15.05;;;17.80;99.90;;;;;;4997263;28;20451;-64
2023/09/08 06:49:25;;;;;;;16.42;14.18;;;17.80;99.90;;;;;;4988801;28;20046;-64
2023/09/08 06:51:51;;;;;;;19.92;15.02;;;17.80;99.90;;;;;;4997517;28;20117;-64
2023/09/08 06:54:16;;;;;;;18.27;14.50;;;17.90;99.90;;;;;;4999128;28;20034;-64
2023/09/08 06:56:42;;;;;;;20.33;15.15;;;17.90;99.90;;;;;;4980236;28;20054;-64
2023/09/08 06:59:08;;;;;;;18.48;14.35;;;17.90;99.90;;;;;;5000818;28;20038;-64
2023/09/08 07:01:34;;;;;;;17.67;14.15;;;18.00;99.90;;;;;;4978197;28;20053;-64
2023/09/08 07:04:00;;;;;;;16.02;13.52;;;18.00;99.90;;;;;;4994365;28;20069;-64
2023/09/08 07:06:25;;;;;;;18.30;13.60;;;18.10;99.90;;;;;;4996765;28;20069;-64
2023/09/08 07:08:51;;;;;;;15.10;12.88;;;18.10;99.90;;;;;;4994672;28;20093;-64
2023/09/08 07:11:17;;;;;;;20.67;13.68;;;18.10;99.90;;;;;;4995490;28;20038;-64
2023/09/08 07:13:42;;;;;;;14.93;12.85;;;18.20;99.90;;;;;;4998718;28;20053;-64
2023/09/08 07:16:08;;;;;;;18.80;13.32;;;18.30;99.90;;;;;;4997254;28;20057;-65
2023/09/08 07:18:35;;;;;;;17.55;12.50;;;18.30;99.90;;;;;;5000690;28;20070;-64
2023/09/08 07:21:02;;;;;;;16.50;12.35;;;18.30;99.90;;;;;;4993593;28;20045;-64
2023/09/08 07:23:28;;;;;;;17.88;12.75;;;18.40;99.90;;;;;;4992147;28;20386;-64
2023/09/08 07:25:53;;;;;;;15.65;12.10;;;18.40;99.90;;;;;;4992451;28;20061;-64
2023/09/08 07:28:19;;;;;;;15.85;12.52;;;18.40;99.90;;;;;;4999508;28;20033;-64
2023/09/08 07:30:45;;;;;;;18.50;13.30;;;18.50;99.90;;;;;;4958783;28;20042;-64
2023/09/08 07:33:11;;;;;;;20.40;13.23;;;18.50;99.90;;;;;;4996117;28;20038;-65
2023/09/08 07:35:38;;;;;;;18.67;12.55;;;18.60;99.90;;;;;;4980125;28;20106;-64
2023/09/08 07:38:05;;;;;;;15.55;13.85;;;18.70;99.90;;;;;;4981183;28;20405;-65
2023/09/08 07:40:32;;;;;;;16.90;13.13;;;18.80;99.90;;;;;;4985054;28;20103;-64
2023/09/08 07:42:57;;;;;;;17.05;12.10;;;18.90;99.90;;;;;;4993053;28;20112;-64
2023/09/08 07:45:23;;;;;;;16.40;12.63;;;18.90;99.90;;;;;;4992410;28;20096;-65
2023/09/08 07:47:49;;;;;;;22.13;12.38;;;19.00;99.90;;;;;;4978653;28;20043;-65
2023/09/08 07:50:26;;;;;;;15.32;13.10;;;19.10;99.90;;;;;;4998464;28;20041;-65
2023/09/08 07:52:54;;;;;;;14.73;11.80;;;19.20;99.90;;;;;;4995053;28;20034;-64
2023/09/08 07:55:23;;;;;;;15.43;11.80;;;19.10;99.90;;;;;;4992477;28;20440;-64
2023/09/08 07:57:50;;;;;;;16.92;12.73;;;19.30;99.90;;;;;;4982999;28;20038;-64
2023/09/08 08:00:17;;;;;;;15.70;12.07;;;19.30;99.90;;;;;;4991122;28;20050;-64
2023/09/08 08:02:46;;;;;;;16.63;11.82;;;19.40;99.90;;;;;;4992694;28;20045;-64
2023/09/08 08:05:12;;;;;;;18.23;13.15;;;19.50;99.90;;;;;;4994368;28;20045;-64
2023/09/08 08:07:39;;;;;;;16.20;12.05;;;19.70;99.90;;;;;;4979395;28;20046;-64
2023/09/08 08:10:08;;;;;;;20.15;12.85;;;19.70;99.90;;;;;;4992541;28;20034;-64
2023/09/08 08:12:34;;;;;;;15.38;11.73;;;19.80;99.90;;;;;;4996165;28;20042;-65
2023/09/08 08:15:00;;;;;;;17.30;11.25;;;19.90;99.90;;;;;;4967164;28;20097;-64
2023/09/08 08:17:27;;;;;;;15.13;10.50;;;20.00;99.90;;;;;;4975162;28;20053;-64
2023/09/08 08:19:54;;;;;;;16.77;10.48;;;20.10;99.90;;;;;;4990583;28;20053;-64
2023/09/08 08:22:20;;;;;;;15.00;10.77;;;20.20;99.90;;;;;;4993162;28;20416;-65
2023/09/08 08:24:45;;;;;;;13.32;10.55;;;20.30;99.90;;;;;;4991487;28;20035;-64
2023/09/08 08:27:11;;;;;;;18.00;11.40;;;20.40;99.90;;;;;;4993230;28;20346;-64
2023/09/08 08:29:37;;;;;;;14.60;10.27;;;20.40;99.90;;;;;;4992801;28;20034;-64
2023/09/08 08:32:02;;;;;;;13.10;10.55;;;20.50;99.90;;;;;;4991571;28;20404;-65
2023/09/08 08:34:28;;;;;;;15.13;9.98;;;20.60;99.90;;;;;;4991675;28;20038;-65
2023/09/08 08:36:54;;;;;;;16.15;9.95;;;20.70;99.90;;;;;;4991834;28;20502;-65
2023/09/08 08:39:19;;;;;;;16.33;9.43;;;20.80;99.90;;;;;;4986205;28;20084;-65
2023/09/08 08:41:45;;;;;;;11.43;9.38;;;20.90;99.90;;;;;;4991563;28;20520;-65
2023/09/08 08:44:11;;;;;;;14.70;9.15;;;20.90;99.90;;;;;;4991231;28;20517;-65
2023/09/08 08:46:38;;;;;;;12.43;8.93;;;21.00;99.90;;;;;;4988032;28;20038;-65
2023/09/08 08:49:04;;;;;;;11.35;8.27;;;21.10;99.90;;;;;;4997650;28;20053;-65
2023/09/08 08:51:30;;;;;;;13.73;8.88;;;21.20;99.90;;;;;;4977718;28;20042;-65
2023/09/08 08:53:57;;;;;;;12.35;8.50;;;21.30;99.90;;;;;;4991035;28;20042;-65
2023/09/08 08:56:23;;;;;;;12.27;8.60;;;21.50;99.90;;;;;;4987339;28;20051;-65
2023/09/08 08:58:50;;;;;;;11.07;7.93;;;21.50;99.90;;;;;;4976691;28;20125;-65
2023/09/08 09:01:17;;;;;;;;;;;21.60;99.90;;;;;;4975199;28;20054;-65
2023/09/08 09:03:44;;;;;;;10.85;8.25;;;21.80;99.90;;;;;;4991718;28;19969;-65
2023/09/08 09:06:10;;;;;;;;;;;21.90;99.90;;;;;;4995782;28;20042;-65
2023/09/08 09:08:37;;;;;;;;;;;22.10;99.90;;;;;;4993897;28;19960;-65
2023/09/08 09:11:02;;;;;;;10.85;8.40;;;22.30;99.90;;;;;;4995901;28;19917;-65
2023/09/08 09:13:28;;;;;;;14.77;8.15;;;22.50;99.90;;;;;;4992431;28;20041;-65
2023/09/08 09:15:59;;;;;;;12.73;8.00;;;22.70;99.90;;;;;;4979125;28;20386;-65
2023/09/08 09:18:26;;;;;;;;;;;23.00;99.90;;;;;;4992312;28;20050;-65
2023/09/08 09:20:55;;;;;;;;;;;23.20;99.90;;;;;;4996899;28;20300;-65
2023/09/08 09:23:34;;;;;;;;;;;23.50;99.90;;;;;;4993895;28;19964;-65
2023/09/08 09:26:00;;;;;;;;;;;23.70;99.90;;;;;;4993661;28;19918;-65
2023/09/08 09:28:28;;;;;;;;;;;24.00;99.90;;;;;;4993181;28;19918;-66
2023/09/08 09:30:56;;;;;;;;;;;24.20;99.90;;;;;;4991503;28;20376;-64
2023/09/08 09:33:22;;;;;;;;;;;24.40;99.90;;;;;;4975550;28;19918;-65
2023/09/08 09:35:52;;;;;;;;;;;24.60;99.90;;;;;;4992788;28;20451;-65
2023/09/08 09:38:19;;;;;;;;;;;24.80;99.90;;;;;;4995793;28;19925;-66
2023/09/08 09:40:45;;;;;;;;;;;24.90;99.90;;;;;;4978950;28;20308;-66
2023/09/08 09:43:14;;;;;;;11.95;7.07;;;25.10;99.90;;;;;;4978148;28;19925;-66
2023/09/08 09:45:41;;;;;;;12.50;7.60;;;25.30;99.90;;;;;;4995321;28;20045;-66
2023/09/08 09:48:09;;;;;;;13.32;8.20;;;25.50;99.90;;;;;;4995848;28;20043;-66
2023/09/08 09:50:36;;;;;;;;;;;25.70;99.90;;;;;;4993976;28;20045;-66
2023/09/08 09:53:12;;;;;;;12.18;8.27;;;25.90;99.90;;;;;;4978303;28;19918;-66
2023/09/08 09:55:40;;;;;;;11.88;8.02;;;26.10;99.90;;;;;;4995264;28;20489;-66
2023/09/08 09:58:06;;;;;;;;;;;26.30;99.90;;;;;;4996171;28;20089;-67
2023/09/08 10:00:33;;;;;;;;;;;26.50;99.90;;;;;;4979315;28;20373;-66
2023/09/08 10:02:59;;;;;;;13.93;8.00;;;26.60;99.90;;;;;;4995466;28;20004;-65
2023/09/08 10:05:25;;;;;;;;;;;26.70;99.90;;;;;;4996262;28;20169;-65
2023/09/08 10:07:51;;;;;;;;;;;26.80;99.90;;;;;;4994713;28;20443;-65
2023/09/08 10:10:17;;;;;;;;;;;27.00;99.90;;;;;;4978443;28;19918;-65
2023/09/08 10:12:45;;;;;;;13.10;7.03;;;27.20;99.90;;;;;;4995811;28;19925;-65
2023/09/08 10:15:12;;;;;;;9.13;7.40;;;27.40;99.90;;;;;;4995076;28;20117;-66
2023/09/08 10:17:40;;;;;;;11.80;7.38;;;27.50;99.90;;;;;;4995183;28;20112;-65
2023/09/08 10:20:11;;;;;;;10.90;7.47;;;27.60;99.90;;;;;;4995157;28;20046;-65
2023/09/08 10:22:40;;;;;;;9.43;8.00;;;27.70;99.90;;;;;;4993683;28;20113;-67
2023/09/08 10:25:08;;;;;;;13.40;8.32;;;27.90;99.90;;;;;;4995185;28;20042;-65
2023/09/08 10:27:35;;;;;;;9.20;6.82;;;28.00;99.90;;;;;;4976404;28;20137;-65
2023/09/08 10:30:04;;;;;;;11.85;7.78;;;28.20;99.90;;;;;;4977838;28;20042;-65
2023/09/08 10:32:32;;;;;;;13.07;7.05;;;28.20;99.90;;;;;;4994844;28;20049;-65
2023/09/08 10:35:00;;;;;;;12.43;6.70;;;28.30;99.90;;;;;;4993328;28;20038;-65
2023/09/08 10:37:29;;;;;;;14.20;7.30;;;28.40;99.70;;;;;;4981526;28;20042;-65
2023/09/08 10:40:27;;;;;;;8.05;6.50;;;28.50;99.00;;;;;;4996246;28;20041;-67
2023/09/08 10:43:09;;;;;;;9.50;6.63;;;28.50;97.80;;;;;;4975617;28;20524;-65
2023/09/08 10:45:35;;;;;;;10.63;6.70;;;28.60;97.90;;;;;;4979545;28;20615;-65
2023/09/08 10:48:01;;;;;;;9.18;6.30;;;28.70;98.00;;;;;;4981091;28;20070;-65
2023/09/08 10:50:31;;;;;;;11.07;6.43;;;28.70;98.20;;;;;;5001395;28;20045;-65
2023/09/08 10:53:17;;;;;;;12.82;6.60;;;28.80;97.10;;;;;;4980991;28;20049;-65
2023/09/08 10:55:53;;;;;;;7.25;6.18;;;28.90;97.00;;;;;;4984692;28;20034;-65
2023/09/08 10:58:42;;;;;;;8.45;6.57;;;29.00;96.90;;;;;;4979931;28;20054;-65
2023/09/08 11:01:12;;;;;;;;;;;29.10;96.20;;;;;;4983158;28;20117;-66
2023/09/08 11:03:37;;;;;;;12.15;6.43;;;29.10;95.20;;;;;;4978039;28;20407;-67
2023/09/08 11:06:04;;;;;;;9.05;5.82;;;29.20;96.80;;;;;;4993191;28;20142;-65
2023/09/08 11:08:30;;;;;;;11.02;6.70;;;29.30;96.90;;;;;;4993860;28;20034;-66
2023/09/08 11:10:56;;;;;;;10.13;6.05;;;29.40;96.50;;;;;;4994089;28;20107;-67
2023/09/08 11:13:22;;;;;;;11.07;6.50;;;29.60;96.50;;;;;;4976441;28;20054;-67
2023/09/08 11:15:51;;;;;;;10.20;5.88;;;29.80;96.40;;;;;;4993525;28;20035;-66
2023/09/08 11:18:17;;;;;;;9.55;6.63;;;29.90;95.80;;;;;;4992849;28;20056;-66
2023/09/08 11:20:44;;;;;;;13.55;7.15;;;29.90;95.20;;;;;;4975394;28;20041;-65
2023/09/08 11:23:10;;;;;;;11.05;6.53;;;30.00;94.60;;;;;;4976056;28;20326;-65
2023/09/08 11:25:36;;;;;;;8.60;6.10;;;29.90;94.10;;;;;;4993621;28;20401;-65
2023/09/08 11:28:02;;;;;;;11.52;6.80;;;30.10;94.50;;;;;;4976686;28;20054;-66
2023/09/08 11:30:28;;;;;;;11.43;6.38;;;30.10;94.40;;;;;;4976034;28;20048;-65
2023/09/08 11:32:53;;;;;;;8.60;5.55;;;30.10;94.00;;;;;;4993272;28;20050;-66
2023/09/08 11:35:20;;;;;;;11.45;5.53;;;30.00;94.20;;;;;;4996965;28;20113;-66
2023/09/08 11:37:46;;;;;;;11.25;5.88;;;30.00;94.30;;;;;;4982257;28;20042;-65
2023/09/08 11:40:13;;;;;;;9.07;5.97;;;30.10;94.20;;;;;;4997439;28;20049;-65
2023/09/08 11:42:44;;;;;;;11.75;5.90;;;30.20;93.50;;;;;;4981894;28;20042;-66
2023/09/08 11:45:14;;;;;;;7.45;5.15;;;30.20;93.00;;;;;;4993188;28;20034;-65
2023/09/08 11:47:43;;;;;;;7.30;5.82;;;30.20;92.20;;;;;;4980603;28;20050;-65
2023/09/08 11:50:15;;;;;;;7.38;5.10;;;30.20;91.90;;;;;;4984004;28;20046;-66
2023/09/08 11:52:51;;;;;;;9.30;5.30;;;30.30;90.20;;;;;;4997397;28;20035;-68
2023/09/08 11:55:19;;;;;;;6.40;4.90;;;30.40;87.10;;;;;;4997591;28;20456;-66
2023/09/08 11:57:54;;;;;;;8.10;4.90;;;30.40;87.80;;;;;;4978699;28;20049;-65
2023/09/08 12:00:22;;;;;;;6.78;4.80;;;30.40;89.30;;;;;;4980373;28;20523;-66
2023/09/08 12:02:49;;;;;;;6.85;4.95;;;30.40;89.50;;;;;;4995330;28;20157;-65
2023/09/08 12:05:27;;;;;;;;;;;30.60;89.60;;;;;;4998111;28;20548;-66
2023/09/08 12:07:56;;;;;;;6.35;4.78;;;30.70;90.10;;;;;;4984832;28;20641;-65
2023/09/08 12:10:22;;;;;;;8.13;4.72;;;30.70;88.20;;;;;;4999115;28;20038;-67
2023/09/08 12:13:00;;;;;;;9.50;4.65;;;30.80;86.80;;;;;;4992093;28;20053;-66
2023/09/08 12:15:34;;;;;;;10.57;5.20;;;30.80;82.30;;;;;;4991642;28;20045;-66
2023/09/08 12:18:08;;;;;;;7.28;4.55;;;30.60;79.30;;;;;;4974405;28;20065;-66
2023/09/08 12:20:34;;;;;;;6.07;4.47;;;30.50;82.80;;;;;;4992117;28;20052;-66
2023/09/08 12:23:07;;;;;;;8.05;5.15;;;30.50;81.50;;;;;;4977142;28;20050;-66
2023/09/08 12:25:34;;;;;;;8.20;4.88;;;30.50;81.70;;;;;;4997603;28;20132;-66
2023/09/08 12:28:00;;;;;;;6.28;4.65;;;30.40;81.80;;;;;;4981422;28;20398;-66
2023/09/08 12:30:32;;;;;;;7.25;4.80;;;30.50;80.50;;;;;;4975350;28;20038;-66
2023/09/08 12:32:59;;;;;;;6.13;4.68;;;30.50;80.20;;;;;;4985285;28;20046;-66
2023/09/08 12:35:25;;;;;;;8.23;4.60;;;30.40;81.20;;;;;;4994345;28;20543;-66